Time;durP1;ratioP1;P1;durP2;ratioP2;P2;SDS_P1;SDS_P2;PMS_P1;PMS_P2;Temp;Humidity;BMP_temperature;BMP_pressure;BME280_temperature;BME280_humidity;BME280_pressure;Samples;Min_cycle;Max_cycle;Signal;HPM_P1;HPM_P2
2022/08/11 00:04:40;;;;;;;3.20;2.30;;;;;;;20.17;86.84;102266.84;20942078;28;20493;-62
2022/08/11 00:15:03;;;;;;;6.72;2.50;;;;;;;19.95;88.25;102271.34;20956905;28;20619;-60
2022/08/11 00:25:25;;;;;;;7.15;2.97;;;;;;;19.76;89.04;102266.69;20983454;28;20047;-61
2022/08/11 00:35:49;;;;;;;3.10;2.67;;;;;;;19.76;88.17;102266.69;20970471;28;20052;-61
2022/08/11 00:46:24;;;;;;;6.30;2.95;;;;;;;19.89;88.15;102271.84;20966261;28;20496;-60
2022/08/11 00:57:16;;;;;;;7.50;2.70;;;;;;;19.83;88.15;102273.19;20968882;28;20047;-61
2022/08/11 01:08:35;;;;;;;3.00;2.65;;;;;;;19.81;88.02;102282.19;20964083;28;20436;-60
2022/08/11 01:19:39;;;;;;;3.27;2.63;;;;;;;19.60;88.53;102275.97;20968934;28;20036;-60
2022/08/11 01:30:38;;;;;;;3.45;2.50;;;;;;;19.57;88.30;102261.19;20972918;28;20068;-60
2022/08/11 01:52:23;;;;;;;4.75;2.55;;;;;;;19.46;88.02;102263.00;20962213;28;20059;-60
2022/08/11 02:03:14;;;;;;;6.00;2.70;;;;;;;19.29;88.58;102266.09;20964151;28;20496;-60
2022/08/11 02:13:41;;;;;;;;;;;;;;;19.25;88.35;102263.81;20961709;28;20421;-60
2022/08/11 02:24:16;;;;;;;4.53;2.90;;;;;;;19.01;89.66;102263.88;20962810;28;20171;-60
2022/08/11 02:34:49;;;;;;;7.30;3.30;;;;;;;18.95;89.64;102260.88;20970849;28;20059;-60
2022/08/11 02:45:33;;;;;;;4.03;3.35;;;;;;;18.94;88.83;102260.00;20959035;28;20049;-59
2022/08/11 02:56:21;;;;;;;5.50;3.63;;;;;;;18.78;89.30;102258.66;20959644;28;20098;-59
2022/08/11 03:07:00;;;;;;;7.80;3.45;;;;;;;18.72;88.73;102261.75;20949100;28;20055;-60
2022/08/11 03:18:11;;;;;;;10.20;3.70;;;;;;;18.73;88.22;102260.78;20956542;28;20473;-62
2022/08/11 03:28:50;;;;;;;4.72;3.10;;;;;;;18.56;88.79;102262.06;20974202;28;20102;-62
2022/08/11 03:39:30;;;;;;;9.05;3.60;;;;;;;18.53;88.56;102267.56;20958504;28;20088;-62
2022/08/11 03:50:23;;;;;;;7.13;3.70;;;;;;;18.45;88.70;102271.75;20972854;28;20070;-62
2022/08/11 04:01:28;;;;;;;6.72;3.38;;;;;;;18.39;89.17;102270.41;20959468;28;20043;-62
2022/08/11 04:12:08;;;;;;;6.85;3.38;;;;;;;18.44;88.34;102276.19;20974031;28;20072;-60
2022/08/11 04:22:53;;;;;;;8.38;3.80;;;;;;;18.40;88.07;102269.44;20952223;28;20040;-61
2022/08/11 04:33:33;;;;;;;7.20;3.50;;;;;;;18.24;88.67;102261.94;20956518;28;20517;-60
2022/08/11 04:44:26;;;;;;;4.65;3.60;;;;;;;18.24;89.07;102261.94;20954151;28;20053;-61
2022/08/11 05:06:24;;;;;;;9.88;4.05;;;;;;;18.27;88.40;102272.25;20965299;28;20144;-62
2022/08/11 05:59:44;;;;;;;10.60;3.90;;;;;;;19.16;82.59;102270.66;20966853;28;20051;-62
2022/08/11 06:10:08;;;;;;;5.30;3.50;;;;;;;19.35;82.70;102286.81;20978273;28;20048;-64
2022/08/11 06:20:36;;;;;;;10.93;3.60;;;;;;;19.65;80.80;102273.78;20954137;28;20072;-61
2022/08/11 06:30:59;;;;;;;13.32;3.17;;;;;;;20.02;78.84;102272.56;20963504;28;20400;-62
2022/08/11 06:41:30;;;;;;;10.38;2.72;;;;;;;20.32;75.71;102270.06;20944612;28;20048;-62
2022/08/11 06:51:55;;;;;;;5.30;2.45;;;;;;;21.11;72.48;102274.72;20958944;28;20037;-62
2022/08/11 07:02:32;;;;;;;5.38;2.60;;;;;;;21.09;71.98;102279.34;20959832;28;20101;-63
2022/08/11 07:35:13;;;;;;;14.45;2.63;;;;;;;22.07;72.29;102269.69;20957979;28;20048;-63
2022/08/11 07:56:18;;;;;;;5.60;2.70;;;;;;;22.49;70.90;102272.00;20953518;28;20044;-63
2022/08/11 08:17:56;;;;;;;7.75;2.53;;;;;;;23.06;68.76;102269.28;20952204;28;20045;-62
2022/08/11 08:28:38;;;;;;;3.45;2.13;;;;;;;23.45;65.59;102273.50;20978177;28;20053;-61
2022/08/11 08:39:00;;;;;;;6.53;2.30;;;;;;;23.77;65.88;102269.47;20969096;28;20052;-62
2022/08/11 08:49:30;;;;;;;4.85;2.10;;;;;;;24.19;63.83;102267.09;20961407;28;20044;-61
2022/08/11 08:59:52;;;;;;;7.97;1.70;;;;;;;24.54;62.00;102259.94;20965383;28;20511;-61
2022/08/11 09:10:18;;;;;;;5.47;1.70;;;;;;;24.74;59.56;102259.63;20992891;28;20143;-62
2022/08/11 09:20:40;;;;;;;2.10;1.27;;;;;;;24.98;57.51;102249.13;20967602;28;20082;-62
2022/08/11 09:31:05;;;;;;;5.00;1.20;;;;;;;25.35;54.31;102247.03;20965493;28;20595;-62
2022/08/11 09:41:26;;;;;;;4.50;0.98;;;;;;;25.97;49.51;102238.63;20966320;28;20049;-63
2022/08/11 09:52:09;;;;;;;1.63;0.85;;;;;;;26.13;48.29;102225.28;20969690;28;20389;-62
2022/08/11 10:02:31;;;;;;;2.90;1.00;;;;;;;26.41;49.42;102228.34;20964775;28;20045;-62
2022/08/11 10:13:04;;;;;;;2.40;1.13;;;;;;;26.70;44.15;102219.81;20963536;28;20409;-62
2022/08/11 11:07:12;;;;;;;8.77;1.40;;;;;;;27.93;42.46;102177.84;20953584;28;20629;-62
2022/08/11 11:18:06;;;;;;;3.97;1.30;;;;;;;28.41;42.78;102177.50;20955013;28;20951;-62
2022/08/11 11:28:42;;;;;;;3.20;1.30;;;;;;;28.66;40.58;102171.72;20956753;28;20543;-63
2022/08/11 11:39:05;;;;;;;3.17;1.10;;;;;;;29.16;44.74;102174.53;20955453;28;20044;-63
2022/08/11 11:49:31;;;;;;;3.17;1.30;;;;;;;29.15;41.95;102162.13;20962638;28;20086;-62
2022/08/11 12:10:33;;;;;;;1.20;1.10;;;;;;;29.33;40.61;102151.81;20961711;28;20115;-64
2022/08/11 12:20:55;;;;;;;1.63;1.00;;;;;;;29.04;39.45;102154.53;20969331;28;20386;-64
2022/08/11 12:31:20;;;;;;;2.67;1.02;;;;;;;28.76;38.19;102134.69;20972926;28;20620;-64
2022/08/11 12:52:28;;;;;;;1.67;0.90;;;;;;;28.53;40.15;102111.63;20972781;28;20041;-63
2022/08/11 13:13:32;;;;;;;1.98;0.93;;;;;;;28.28;37.36;102095.94;20964437;28;20068;-63
2022/08/11 13:24:14;;;;;;;2.45;1.20;;;;;;;28.50;45.86;102088.66;20993651;28;20048;-62
2022/08/11 13:34:41;;;;;;;2.58;1.23;;;;;;;28.55;43.31;102083.56;20980864;28;20047;-62
2022/08/11 13:45:03;;;;;;;4.18;1.10;;;;;;;28.33;41.48;102082.81;20967806;28;20044;-63
2022/08/11 13:55:25;;;;;;;1.25;0.90;;;;;;;28.31;43.64;102074.94;20985143;28;20468;-62
2022/08/11 14:06:08;;;;;;;4.55;1.10;;;;;;;28.46;45.16;102057.84;20961172;28;20052;-62
2022/08/11 14:16:35;;;;;;;3.15;1.00;;;;;;;28.63;49.31;102048.59;20941839;28;20044;-62
2022/08/11 14:26:58;;;;;;;2.33;1.02;;;;;;;28.63;42.04;102043.22;20959059;28;20424;-62
2022/08/11 14:37:22;;;;;;;3.35;0.70;;;;;;;28.66;42.38;102029.44;20951017;28;20123;-63
2022/08/11 14:47:49;;;;;;;3.40;0.98;;;;;;;28.58;40.43;102021.47;20949087;28;20056;-63
2022/08/11 14:58:15;;;;;;;3.60;1.02;;;;;;;28.80;40.74;102011.63;20944001;28;20498;-62
2022/08/11 15:08:53;;;;;;;2.47;1.15;;;;;;;28.47;43.51;102011.19;20944450;28;20059;-63
2022/08/11 15:19:19;;;;;;;2.17;1.00;;;;;;;28.27;46.08;102008.41;20941178;28;20109;-62
2022/08/11 15:51:11;;;;;;;3.50;1.20;;;;;;;28.51;45.98;101984.81;20941194;28;20055;-62
2022/08/11 16:12:24;;;;;;;2.03;1.20;;;;;;;28.60;45.76;101970.28;20942741;28;20044;-63
2022/08/11 16:22:48;;;;;;;1.98;1.10;;;;;;;28.56;49.91;101958.25;20939868;28;20056;-62
2022/08/11 16:33:24;;;;;;;3.13;1.40;;;;;;;28.84;47.06;101949.31;20943925;28;20409;-63
2022/08/11 16:54:58;;;;;;;3.80;1.27;;;;;;;29.24;48.18;101945.19;20958008;28;20102;-63
2022/08/11 17:16:22;;;;;;;9.02;1.13;;;;;;;28.25;48.96;101936.16;20946417;28;20044;-62
2022/08/11 17:26:57;;;;;;;2.45;1.02;;;;;;;27.94;49.07;101931.97;20953203;28;20051;-62
2022/08/11 17:37:20;;;;;;;2.08;1.10;;;;;;;28.17;49.81;101917.44;20941802;28;20313;-62
